Time;durP1;ratioP1;P1;durP2;ratioP2;P2;SDS_P1;SDS_P2;PMS_P1;PMS_P2;Temp;Humidity;BMP_temperature;BMP_pressure;BME280_temperature;BME280_humidity;BME280_pressure;Samples;Min_cycle;Max_cycle;Signal;HPM_P1;HPM_P2
2021/07/08 00:01:56;;;;;;;;;10.25;9.50;;;;;18.45;65.32;101647.28;5015102;28;46184;-77
2021/07/08 00:04:22;;;;;;;;;10.00;10.00;;;;;18.39;65.59;101660.97;5015256;28;45479;-78
2021/07/08 00:06:47;;;;;;;;;9.50;8.75;;;;;18.32;65.58;101648.94;5014300;28;46501;-77
2021/07/08 00:09:13;;;;;;;;;11.25;10.75;;;;;18.26;65.51;101652.84;5014208;28;45468;-79
2021/07/08 00:11:38;;;;;;;;;9.50;9.00;;;;;18.21;66.04;101646.94;5014832;28;45349;-78
2021/07/08 00:14:05;;;;;;;;;9.50;8.00;;;;;18.17;66.08;101655.22;5015430;28;45486;-78
2021/07/08 00:16:31;;;;;;;;;9.00;9.00;;;;;18.12;66.17;101654.66;5014368;28;47418;-78
2021/07/08 00:18:57;;;;;;;;;10.75;10.25;;;;;18.06;65.75;101644.34;5014661;28;45529;-77
2021/07/08 00:21:23;;;;;;;;;7.00;7.00;;;;;18.00;66.11;101651.75;5019659;28;45294;-77
2021/07/08 00:23:49;;;;;;;;;9.50;8.25;;;;;17.95;66.34;101652.97;5021833;28;45155;-77
2021/07/08 00:26:15;;;;;;;;;12.00;7.75;;;;;17.88;66.53;101641.00;5021516;28;47894;-77
2021/07/08 00:28:40;;;;;;;;;9.50;9.50;;;;;17.82;66.54;101646.69;5021583;28;45313;-77
2021/07/08 00:31:07;;;;;;;;;10.25;9.75;;;;;17.77;66.82;101646.09;5020965;28;45311;-77
2021/07/08 00:33:32;;;;;;;;;9.75;9.75;;;;;17.70;66.65;101648.22;5021425;28;45498;-77
2021/07/08 00:35:58;;;;;;;;;8.50;7.75;;;;;17.65;66.63;101650.31;5020637;28;45495;-77
2021/07/08 00:38:23;;;;;;;;;8.50;8.50;;;;;17.60;66.49;101644.41;5020758;28;45497;-77
2021/07/08 00:40:49;;;;;;;;;9.00;7.00;;;;;17.57;66.57;101649.88;5022201;28;45365;-77
2021/07/08 00:43:14;;;;;;;;;8.75;8.50;;;;;17.55;66.79;101655.28;5020699;28;45547;-77
2021/07/08 00:45:40;;;;;;;;;8.00;7.25;;;;;17.51;66.40;101652.88;5019235;28;48178;-77
2021/07/08 00:48:06;;;;;;;;;7.00;7.00;;;;;17.47;67.06;101646.88;5020865;28;45412;-77
2021/07/08 00:50:43;;;;;;;;;6.00;4.75;;;;;17.45;66.91;101644.31;5020531;28;45294;-77
2021/07/08 00:53:10;;;;;;;;;6.25;5.75;;;;;17.39;66.64;101650.00;5019773;28;45314;-77
2021/07/08 00:55:36;;;;;;;;;6.00;6.00;;;;;17.38;66.64;101648.28;5019836;28;47331;-77
2021/07/08 00:58:02;;;;;;;;;7.00;5.00;;;;;17.34;67.20;101644.09;5015315;28;45559;-77
2021/07/08 01:00:32;;;;;;;;;6.00;6.00;;;;;17.31;67.06;101654.88;5014599;28;45356;-77
2021/07/08 01:02:58;;;;;;;;;7.00;6.00;;;;;17.28;67.24;101647.09;4998632;28;45422;-77
2021/07/08 01:05:27;;;;;;;;;8.25;6.25;;;;;17.28;67.43;101654.19;5015494;28;45667;-77
2021/07/08 01:07:54;;;;;;;;;6.75;6.00;;;;;17.25;67.52;101654.38;5017323;28;45394;-75
2021/07/08 01:10:19;;;;;;;;;6.00;6.00;;;;;17.19;68.00;101658.22;5017667;28;45305;-77
2021/07/08 01:12:45;;;;;;;;;6.75;5.00;;;;;17.17;68.07;101654.78;5018048;28;45424;-76
2021/07/08 01:15:12;;;;;;;;;8.00;7.00;;;;;17.13;68.35;101655.91;5016727;28;46088;-76
2021/07/08 01:17:43;;;;;;;;;6.25;6.00;;;;;17.10;68.34;101653.41;5017276;28;45624;-76
2021/07/08 01:20:10;;;;;;;;;6.00;6.00;;;;;17.08;68.10;101652.66;5017410;28;45531;-76
2021/07/08 01:22:36;;;;;;;;;8.50;5.75;;;;;17.05;68.23;101652.81;5014841;28;45578;-77
2021/07/08 01:25:04;;;;;;;;;5.00;5.00;;;;;16.99;68.50;101639.88;5016812;28;45368;-77
2021/07/08 01:27:30;;;;;;;;;6.75;6.75;;;;;16.98;68.12;101656.75;5016773;28;45367;-77
2021/07/08 01:29:55;;;;;;;;;7.00;6.50;;;;;16.97;68.62;101652.41;5016585;28;45275;-77
2021/07/08 01:32:21;;;;;;;;;8.00;6.50;;;;;16.92;68.36;101652.66;5017777;28;46577;-77
2021/07/08 01:34:46;;;;;;;;;8.50;6.00;;;;;16.92;68.40;101658.81;5016890;28;45288;-77
2021/07/08 01:37:12;;;;;;;;;6.00;6.00;;;;;16.91;68.45;101666.84;5016228;28;45399;-77
2021/07/08 01:39:38;;;;;;;;;9.50;7.00;;;;;16.89;68.95;101666.94;5015531;28;45529;-77
2021/07/08 01:42:04;;;;;;;;;7.00;6.50;;;;;16.88;68.70;101670.53;5017329;28;45488;-77
2021/07/08 01:44:29;;;;;;;;;4.50;4.50;;;;;16.86;69.24;101675.09;5016415;28;45472;-77
2021/07/08 01:46:55;;;;;;;;;9.25;6.00;;;;;16.83;69.42;101675.25;5017743;28;45424;-77
2021/07/08 01:49:20;;;;;;;;;7.75;7.75;;;;;16.81;69.35;101676.25;5015852;28;45447;-77
2021/07/08 01:51:45;;;;;;;;;6.50;6.25;;;;;16.81;69.85;101678.91;5016367;28;45432;-77
2021/07/08 01:54:11;;;;;;;;;8.00;5.75;;;;;16.78;69.75;101674.63;5016436;28;46127;-77
2021/07/08 01:56:38;;;;;;;;;8.50;6.00;;;;;16.77;70.04;101680.03;5016347;28;46603;-77
2021/07/08 01:59:04;;;;;;;;;6.50;5.00;;;;;16.74;69.96;101689.00;5016592;28;45482;-77
2021/07/08 02:01:30;;;;;;;;;4.75;4.75;;;;;16.72;70.15;101688.25;5016488;28;46825;-77
2021/07/08 02:03:55;;;;;;;;;6.00;6.00;;;;;16.72;70.24;101684.72;5016530;28;45521;-77
2021/07/08 02:06:21;;;;;;;;;7.00;6.75;;;;;16.69;70.16;101693.66;5016578;28;45368;-77
2021/07/08 02:08:48;;;;;;;;;9.50;6.25;;;;;16.66;70.59;101691.19;5016728;28;45476;-75
2021/07/08 02:11:13;;;;;;;;;7.00;5.75;;;;;16.62;70.34;101694.94;5016452;28;45467;-75
2021/07/08 02:13:39;;;;;;;;;7.00;7.00;;;;;16.60;70.71;101684.41;5016540;28;45952;-77
2021/07/08 02:16:07;;;;;;;;;6.50;6.50;;;;;16.58;70.91;101691.59;5015721;28;45430;-77
2021/07/08 02:18:34;;;;;;;;;7.00;7.00;;;;;16.55;70.68;101681.16;5016477;28;45466;-76
2021/07/08 02:21:00;;;;;;;;;5.50;5.00;;;;;16.55;70.58;101689.09;5016299;28;45362;-77
2021/07/08 02:23:25;;;;;;;;;5.00;5.00;;;;;16.56;70.64;101695.28;5016606;28;45313;-77
2021/07/08 02:25:50;;;;;;;;;8.00;7.50;;;;;16.55;71.07;101693.53;5016573;28;45442;-76
2021/07/08 02:28:15;;;;;;;;;8.00;6.00;;;;;16.53;71.36;101687.47;5015457;28;45459;-76
2021/07/08 02:30:41;;;;;;;;;7.25;5.50;;;;;16.53;71.16;101692.75;5015777;28;45596;-77
2021/07/08 02:33:08;;;;;;;;;8.50;6.50;;;;;16.51;71.35;101687.53;5016286;28;46018;-76
2021/07/08 02:35:35;;;;;;;;;5.00;5.00;;;;;16.50;71.46;101685.00;5015995;28;45440;-77
2021/07/08 02:38:01;;;;;;;;;8.00;6.00;;;;;16.49;71.31;101693.84;5016973;28;45435;-75
2021/07/08 02:40:33;;;;;;;;;8.50;6.50;;;;;16.45;71.36;101690.53;5015744;28;45541;-76
2021/07/08 02:43:03;;;;;;;;;8.00;6.50;;;;;16.42;71.95;101686.22;5016043;28;45507;-78
2021/07/08 02:45:31;;;;;;;;;7.00;7.00;;;;;16.39;72.22;101681.09;5015589;28;45534;-76
2021/07/08 02:47:58;;;;;;;;;4.75;4.75;;;;;16.37;72.29;101680.31;5010894;28;45499;-75
2021/07/08 02:50:25;;;;;;;;;6.50;6.50;;;;;16.35;72.23;101684.00;5016139;28;45621;-75
2021/07/08 02:52:51;;;;;;;;;9.25;8.00;;;;;16.31;72.18;101672.66;5016601;28;46152;-77
2021/07/08 02:55:17;;;;;;;;;8.25;6.25;;;;;16.28;72.03;101671.97;5015173;28;45822;-76
2021/07/08 02:57:46;;;;;;;;;7.75;7.50;;;;;16.29;72.37;101668.41;5014758;28;45515;-76
2021/07/08 03:00:13;;;;;;;;;10.25;8.25;;;;;16.27;72.05;101672.91;5015773;28;45572;-76
2021/07/08 03:02:39;;;;;;;;;6.75;6.25;;;;;16.26;72.42;101665.88;5015583;28;45550;-77
2021/07/08 03:05:06;;;;;;;;;9.00;6.25;;;;;16.25;72.79;101672.13;5016043;28;45700;-76
2021/07/08 03:07:31;;;;;;;;;6.50;5.50;;;;;16.19;72.42;101670.66;5014882;28;45451;-76
2021/07/08 03:09:56;;;;;;;;;5.50;5.50;;;;;16.21;72.75;101681.19;5014576;28;45773;-76
2021/07/08 03:12:22;;;;;;;;;9.50;8.00;;;;;16.19;72.82;101683.91;5015694;28;45990;-77
2021/07/08 03:14:47;;;;;;;;;7.50;6.25;;;;;16.18;73.02;101682.19;5015490;28;45508;-76
2021/07/08 03:17:12;;;;;;;;;7.75;7.75;;;;;16.17;73.06;101672.50;5015789;28;48405;-77
2021/07/08 03:19:38;;;;;;;;;7.00;6.00;;;;;16.15;73.41;101669.94;5016090;28;45314;-76
2021/07/08 03:22:03;;;;;;;;;7.25;7.25;;;;;16.12;73.24;101666.59;5015521;28;46840;-76
2021/07/08 03:24:29;;;;;;;;;7.00;7.00;;;;;16.10;73.26;101676.44;5014241;28;45696;-76
2021/07/08 03:26:54;;;;;;;;;7.00;7.00;;;;;16.09;73.07;101680.03;5015498;28;45491;-77
2021/07/08 03:29:19;;;;;;;;;7.00;7.00;;;;;16.07;73.13;101681.88;5014568;28;45559;-75
2021/07/08 03:31:45;;;;;;;;;8.50;6.50;;;;;16.05;73.62;101692.56;5015514;28;46297;-74
2021/07/08 03:34:11;;;;;;;;;10.00;8.50;;;;;16.04;73.41;101693.50;5015121;28;45424;-77
2021/07/08 03:36:36;;;;;;;;;8.00;7.75;;;;;16.03;73.63;101693.59;5014518;28;45496;-76
2021/07/08 03:39:03;;;;;;;;;7.25;7.25;;;;;16.01;73.91;101706.06;5015252;28;45507;-76
2021/07/08 03:41:29;;;;;;;;;7.00;6.25;;;;;16.00;73.94;101707.84;5015143;28;45417;-77
2021/07/08 03:43:54;;;;;;;;;8.00;6.75;;;;;15.97;73.92;101701.84;5015726;28;45306;-77
2021/07/08 03:46:19;;;;;;;;;6.75;6.75;;;;;15.97;74.46;101712.44;5013056;28;45602;-77
2021/07/08 03:48:44;;;;;;;;;7.00;6.00;;;;;15.94;74.29;101712.59;4996847;28;48229;-76
2021/07/08 03:51:10;;;;;;;;;9.50;7.00;;;;;15.93;74.07;101717.06;5015087;28;45436;-77
2021/07/08 03:53:35;;;;;;;;;6.00;6.00;;;;;15.91;74.51;101719.75;5009122;28;45496;-76
2021/07/08 03:56:01;;;;;;;;;7.75;7.75;;;;;15.90;74.62;101719.84;5014816;28;45366;-74
2021/07/08 03:58:26;;;;;;;;;6.00;5.00;;;;;15.88;74.75;101717.28;5014667;28;45478;-75
2021/07/08 04:00:52;;;;;;;;;8.00;6.00;;;;;15.85;74.31;101720.06;5014307;28;45421;-77
2021/07/08 04:03:18;;;;;;;;;9.00;6.50;;;;;15.88;74.47;101727.88;5014838;28;45875;-77
2021/07/08 04:05:45;;;;;;;;;7.00;5.75;;;;;15.87;74.39;101728.81;5014649;28;45533;-76
2021/07/08 04:08:11;;;;;;;;;6.50;6.50;;;;;15.88;74.87;101727.03;5015219;28;45472;-76
2021/07/08 04:10:38;;;;;;;;;10.25;7.25;;;;;15.87;74.61;101734.13;5027749;28;47159;-77
2021/07/08 04:13:06;;;;;;;;;9.00;6.75;;;;;15.85;74.41;101735.13;5014121;28;45473;-77
2021/07/08 04:15:33;;;;;;;;;9.25;6.50;;;;;15.85;74.32;101727.16;5013303;28;45312;-77
2021/07/08 04:17:59;;;;;;;;;7.75;6.00;;;;;15.85;74.38;101729.81;5014251;28;45393;-77
2021/07/08 04:20:24;;;;;;;;;9.25;5.75;;;;;15.86;74.54;101726.22;5013278;28;46675;-77
2021/07/08 04:22:50;;;;;;;;;8.50;8.00;;;;;15.88;74.34;101725.22;5013889;28;45403;-77
2021/07/08 04:25:16;;;;;;;;;6.25;6.25;;;;;15.92;74.62;101725.91;5014000;28;45460;-77
2021/07/08 04:27:43;;;;;;;;;8.00;7.25;;;;;15.94;74.96;101718.75;5013915;28;45472;-77
2021/07/08 04:30:12;;;;;;;;;7.25;6.75;;;;;15.96;74.44;101721.34;5013446;28;45424;-77
2021/07/08 04:32:38;;;;;;;;;8.75;8.00;;;;;15.96;74.88;101730.13;5011786;28;45973;-77
2021/07/08 04:35:05;;;;;;;;;5.50;5.50;;;;;15.96;74.83;101737.22;5028353;28;45591;-77
2021/07/08 04:37:31;;;;;;;;;10.75;7.75;;;;;15.99;74.94;101742.41;5013823;28;45807;-77
2021/07/08 04:39:56;;;;;;;;;9.00;8.50;;;;;15.99;75.03;101734.44;5013072;28;45470;-77
2021/07/08 04:42:22;;;;;;;;;11.00;10.00;;;;;16.02;74.59;101731.63;5012123;28;45598;-77
2021/07/08 04:44:47;;;;;;;;;11.00;9.50;;;;;16.04;75.14;101732.44;5013216;28;46838;-77
2021/07/08 04:47:14;;;;;;;;;10.00;9.00;;;;;16.06;74.98;101738.50;5013238;28;45397;-77
2021/07/08 04:49:40;;;;;;;;;10.50;9.00;;;;;16.08;75.00;101739.31;5013087;28;46080;-77
2021/07/08 04:52:06;;;;;;;;;10.50;7.75;;;;;16.11;74.46;101747.09;5012887;28;45542;-77
2021/07/08 04:54:31;;;;;;;;;9.75;7.25;;;;;16.15;74.33;101746.00;5013313;28;45541;-76
2021/07/08 04:56:57;;;;;;;;;6.25;6.25;;;;;16.18;74.35;101743.19;5013246;28;45518;-77
2021/07/08 04:59:22;;;;;;;;;12.00;9.00;;;;;16.21;74.43;101744.84;5013751;28;46165;-77
2021/07/08 05:01:47;;;;;;;;;9.00;6.25;;;;;16.22;73.86;101746.53;5012164;28;45404;-77
2021/07/08 05:04:13;;;;;;;;;8.00;7.00;;;;;16.23;73.95;101753.56;5013075;28;45440;-77
2021/07/08 05:06:38;;;;;;;;;7.25;7.00;;;;;16.27;73.89;101763.09;5013097;28;45452;-77
2021/07/08 05:09:03;;;;;;;;;7.00;6.00;;;;;16.31;74.30;101759.34;5013238;28;46296;-77
2021/07/08 05:11:29;;;;;;;;;8.75;7.75;;;;;16.34;74.35;101760.06;5013765;28;45488;-77
2021/07/08 05:13:54;;;;;;;;;8.25;7.50;;;;;16.37;74.38;101761.69;5013270;28;45750;-77
2021/07/08 05:16:19;;;;;;;;;9.00;8.75;;;;;16.43;74.40;101762.22;5013873;28;45458;-77
2021/07/08 05:18:45;;;;;;;;;10.25;8.00;;;;;16.50;74.27;101761.94;5013830;28;46124;-77
2021/07/08 05:21:10;;;;;;;;;11.75;8.25;;;;;16.59;74.18;101772.91;5012875;28;45456;-77
2021/07/08 05:23:39;;;;;;;;;10.50;8.75;;;;;16.73;73.85;101771.38;5013567;28;45309;-77
2021/07/08 05:26:04;;;;;;;;;9.50;8.00;;;;;16.86;73.68;101780.41;5013480;28;45501;-77
2021/07/08 05:28:31;;;;;;;;;9.50;9.50;;;;;17.08;73.70;101769.53;5012637;28;46297;-81
2021/07/08 05:30:56;;;;;;;;;7.00;7.00;;;;;17.25;73.01;101780.09;5013060;28;45544;-76
2021/07/08 05:33:22;;;;;;;;;8.50;8.00;;;;;17.37;72.41;101776.75;5013034;28;45853;-77
2021/07/08 05:35:47;;;;;;;;;9.00;7.00;;;;;17.49;72.03;101783.22;5011199;28;45643;-77
2021/07/08 05:38:12;;;;;;;;;7.50;6.75;;;;;17.62;71.71;101780.72;5013377;28;46239;-77
2021/07/08 05:40:38;;;;;;;;;8.25;6.00;;;;;17.80;71.65;101782.38;5013296;28;46064;-77
2021/07/08 05:43:05;;;;;;;;;8.50;8.50;;;;;18.17;70.53;101783.78;5013481;28;45471;-77
2021/07/08 05:45:30;;;;;;;;;9.50;7.75;;;;;18.38;70.14;101783.47;5013238;28;45560;-77
2021/07/08 05:47:55;;;;;;;;;9.00;6.50;;;;;18.49;69.31;101783.69;5012474;28;46241;-77
2021/07/08 05:50:21;;;;;;;;;9.50;9.50;;;;;18.63;68.77;101781.03;5012517;28;45774;-77
2021/07/08 05:52:46;;;;;;;;;8.00;8.00;;;;;19.85;69.05;101777.06;5015087;28;45183;-77
2021/07/08 05:55:12;;;;;;;;;8.50;8.25;;;;;21.96;66.55;101771.19;5016037;28;45447;-77
2021/07/08 05:57:37;;;;;;;;;9.25;7.00;;;;;24.19;62.85;101782.19;4997129;28;47131;-77
2021/07/08 06:00:05;;;;;;;;;6.00;6.00;;;;;26.15;59.57;101778.38;4998805;28;45936;-77
2021/07/08 06:02:30;;;;;;;;;7.50;6.25;;;;;27.63;55.36;101780.41;5016354;28;45513;-77
2021/07/08 06:04:55;;;;;;;;;7.25;7.25;;;;;28.08;52.18;101783.06;5015877;28;51443;-77
2021/07/08 06:07:20;;;;;;;;;10.00;9.00;;;;;27.51;51.63;101785.19;5016353;28;45929;-78
2021/07/08 06:09:46;;;;;;;;;9.00;6.50;;;;;27.16;51.69;101788.63;5015174;28;45862;-78
2021/07/08 06:12:11;;;;;;;;;8.50;7.75;;;;;27.26;51.44;101785.88;5016080;28;45600;-75
2021/07/08 06:14:36;;;;;;;;;9.75;8.00;;;;;26.79;49.90;101791.28;4996904;28;46170;-77
2021/07/08 06:17:03;;;;;;;;;6.25;6.25;;;;;25.86;50.45;101790.00;5012938;28;45508;-79
2021/07/08 06:19:29;;;;;;;;;8.25;7.25;;;;;25.14;51.66;101792.88;5009683;28;45708;-79
2021/07/08 06:21:54;;;;;;;;;6.00;5.25;;;;;24.68;52.51;101794.16;5015541;28;45461;-78
2021/07/08 06:24:19;;;;;;;;;6.75;6.00;;;;;24.40;52.46;101795.66;5011301;28;45612;-76
2021/07/08 06:26:45;;;;;;;;;6.75;6.25;;;;;23.92;53.16;101791.56;5011438;28;46241;-78
2021/07/08 06:29:11;;;;;;;;;7.00;7.00;;;;;23.64;54.10;101792.97;5010616;28;45904;-77
2021/07/08 06:31:36;;;;;;;;;7.50;7.50;;;;;23.50;54.38;101790.53;5012655;28;45587;-79
2021/07/08 06:34:01;;;;;;;;;8.00;6.50;;;;;23.43;54.52;101791.97;5011535;28;45640;-78
2021/07/08 06:36:27;;;;;;;;;8.25;7.75;;;;;23.42;54.55;101790.28;5010496;28;45927;-79
2021/07/08 06:38:52;;;;;;;;;5.25;5.25;;;;;23.43;54.83;101797.34;5009864;28;45501;-79
2021/07/08 06:41:18;;;;;;;;;6.75;5.75;;;;;23.44;55.04;101797.25;5009840;28;45819;-78
2021/07/08 06:43:44;;;;;;;;;8.75;7.00;;;;;23.46;54.32;101805.16;5011877;28;45635;-79
2021/07/08 06:46:14;;;;;;;;;9.00;9.00;;;;;23.50;54.62;101805.78;5012408;28;46877;-75
2021/07/08 06:48:39;;;;;;;;;5.50;4.00;;;;;23.57;55.21;101805.16;5014204;28;46095;-78
2021/07/08 06:51:04;;;;;;;;;8.00;5.00;;;;;23.75;55.46;101808.19;5015346;28;45350;-79
2021/07/08 06:53:30;;;;;;;;;5.00;5.00;;;;;23.91;54.61;101803.28;5016200;28;45688;-79
2021/07/08 06:55:55;;;;;;;;;4.50;4.50;;;;;24.06;54.34;101801.13;5016583;28;46227;-79
2021/07/08 06:58:21;;;;;;;;;5.00;5.00;;;;;24.18;54.58;101804.66;5016581;28;45511;-79
2021/07/08 07:00:46;;;;;;;;;7.50;4.75;;;;;24.28;54.68;101810.13;4998178;28;45595;-80
2021/07/08 07:03:11;;;;;;;;;5.50;5.50;;;;;24.38;54.15;101816.41;5012966;28;45475;-80
2021/07/08 07:05:37;;;;;;;;;8.00;5.75;;;;;24.44;53.61;101824.00;5013657;28;45463;-81
2021/07/08 07:08:02;;;;;;;;;5.50;5.00;;;;;24.52;53.34;101824.19;5015473;28;45523;-79
2021/07/08 07:10:28;;;;;;;;;5.75;4.25;;;;;24.60;53.89;101829.78;5014356;28;45402;-80
2021/07/08 07:12:56;;;;;;;;;6.00;5.00;;;;;24.60;53.09;101821.72;5014881;28;45433;-78
2021/07/08 07:15:24;;;;;;;;;5.25;5.00;;;;;24.57;53.28;101823.78;5013258;28;46162;-78
2021/07/08 07:17:49;;;;;;;;;5.50;4.75;;;;;24.54;53.15;101827.59;5012994;28;45734;-78
2021/07/08 07:20:17;;;;;;;;;6.50;5.00;;;;;24.63;53.66;101829.50;5015865;28;45214;-78
2021/07/08 07:22:47;;;;;;;;;5.75;5.75;;;;;24.84;52.85;101832.19;5012918;28;45889;-80
2021/07/08 07:25:15;;;;;;;;;12.00;10.75;;;;;25.14;53.01;101826.00;5014271;28;46182;-78
2021/07/08 07:27:41;;;;;;;;;5.00;5.00;;;;;25.42;52.21;101820.88;5012950;28;45626;-78
2021/07/08 07:30:07;;;;;;;;;4.00;4.00;;;;;25.64;50.77;101819.84;5015511;28;45740;-78
2021/07/08 07:32:33;;;;;;;;;3.75;3.75;;;;;25.71;51.03;101821.00;5015026;28;45670;-76
2021/07/08 07:34:59;;;;;;;;;4.75;4.75;;;;;26.05;51.61;101826.91;5015465;28;46688;-78
2021/07/08 07:37:25;;;;;;;;;6.25;5.00;;;;;26.22;50.70;101830.75;5014151;28;45762;-78
2021/07/08 07:39:51;;;;;;;;;8.00;6.25;;;;;26.54;50.75;101825.09;5021210;28;45866;-79
2021/07/08 07:42:17;;;;;;;;;7.75;6.25;;;;;26.63;48.89;101829.63;5014341;28;45511;-79
2021/07/08 07:44:47;;;;;;;;;3.50;3.00;;;;;26.63;49.94;101836.88;5015095;28;45947;-79
2021/07/08 07:47:14;;;;;;;;;5.75;4.25;;;;;26.85;49.00;101827.59;5019664;28;45384;-79
2021/07/08 07:49:40;;;;;;;;;6.50;5.00;;;;;27.18;49.28;101826.22;5021631;28;45487;-80
2021/07/08 07:52:06;;;;;;;;;6.25;4.50;;;;;27.76;49.13;101825.97;5020340;28;45537;-79
2021/07/08 07:54:35;;;;;;;;;5.75;5.00;;;;;28.51;48.34;101826.59;5021374;28;45361;-80
2021/07/08 07:57:05;;;;;;;;;5.75;5.00;;;;;29.46;47.10;101830.25;5019550;28;45518;-80
2021/07/08 07:59:34;;;;;;;;;3.25;3.25;;;;;30.10;44.91;101837.72;5021442;28;45365;-78
2021/07/08 08:02:01;;;;;;;;;4.25;4.25;;;;;30.36;44.14;101837.59;5021597;28;45622;-78
2021/07/08 08:04:29;;;;;;;;;7.25;5.00;;;;;30.36;42.99;101837.59;5021717;28;45214;-78
2021/07/08 08:09:40;;;;;;;;;3.75;3.75;;;;;31.66;41.59;101841.94;5020799;28;45459;-80
2021/07/08 08:12:06;;;;;;;;;70.25;58.25;;;;;33.22;41.77;101842.44;5020224;28;45595;-81
2021/07/08 08:14:31;;;;;;;;;12.75;11.00;;;;;34.93;39.70;101838.22;5019195;28;46878;-79
2021/07/08 08:16:58;;;;;;;;;5.25;4.50;;;;;37.49;37.91;101851.75;5020611;28;45345;-80
2021/07/08 08:19:23;;;;;;;;;7.25;4.50;;;;;38.77;34.43;101854.31;5018485;28;45376;-81
2021/07/08 08:21:49;;;;;;;;;2.75;2.75;;;;;37.95;33.91;101855.34;5018890;28;45329;-81
2021/07/08 08:24:15;;;;;;;;;3.75;3.75;;;;;37.53;33.35;101860.38;4999070;28;47218;-81
2021/07/08 08:26:40;;;;;;;;;3.50;3.50;;;;;38.20;33.54;101847.16;5014988;28;45364;-81
2021/07/08 08:29:06;;;;;;;;;2.00;2.00;;;;;38.72;31.06;101861.53;5013290;28;45341;-80
2021/07/08 08:31:31;;;;;;;;;3.00;3.00;;;;;39.31;31.35;101844.47;5013936;28;45558;-81
2021/07/08 08:33:56;;;;;;;;;2.50;1.50;;;;;40.93;30.46;101854.53;5013295;28;46874;-81
2021/07/08 08:36:21;;;;;;;;;3.75;3.75;;;;;41.95;29.12;101854.78;5013497;28;45230;-82
2021/07/08 08:38:47;;;;;;;;;4.50;3.50;;;;;43.32;27.96;101859.97;5013715;28;45648;-80
2021/07/08 08:41:12;;;;;;;;;4.50;2.00;;;;;45.47;26.54;101857.91;5013266;28;45659;-80
2021/07/08 08:43:39;;;;;;;;;3.25;2.50;;;;;46.68;23.66;101864.75;5016239;28;45697;-79
2021/07/08 08:46:05;;;;;;;;;2.75;2.75;;;;;46.24;23.70;101862.53;5017695;28;45565;-80
2021/07/08 08:48:31;;;;;;;;;1.00;1.00;;;;;46.21;25.39;101863.13;5014584;28;45570;-80
2021/07/08 08:50:56;;;;;;;;;3.00;2.00;;;;;47.46;23.28;101861.44;5013712;28;45705;-80
2021/07/08 08:53:21;;;;;;;;;2.50;1.25;;;;;48.87;22.02;101873.72;5014360;28;45395;-80
2021/07/08 08:55:48;;;;;;;;;1.50;1.50;;;;;50.50;21.23;101871.38;5014479;28;45468;-80
2021/07/08 08:58:16;;;;;;;;;1.00;1.00;;;;;51.93;20.07;101879.53;5013493;28;45296;-80
2021/07/08 09:00:57;;;;;;;;;1.00;1.00;;;;;52.60;18.44;101876.69;5013188;28;45467;-80
2021/07/08 09:03:28;;;;;;;;;2.00;2.00;;;;;53.52;17.96;101884.44;5011099;28;45309;-79
2021/07/08 09:06:05;;;;;;;;;2.75;1.75;;;;;54.90;17.57;101886.16;5013816;28;45655;-79
2021/07/08 09:08:30;;;;;;;;;1.75;1.75;;;;;55.82;16.28;101879.75;5012369;28;46926;-79
2021/07/08 09:11:01;;;;;;;;;3.25;1.50;;;;;56.13;16.06;101877.28;5013286;28;45699;-79
2021/07/08 09:13:28;;;;;;;;;1.00;1.00;;;;;56.78;15.63;101874.66;5010932;28;46093;-78
2021/07/08 09:15:54;;;;;;;;;2.50;2.00;;;;;57.36;14.45;101883.78;5011701;28;47173;-78
2021/07/08 09:18:25;;;;;;;;;2.75;2.75;;;;;57.85;14.57;101892.13;5013470;28;45410;-79
2021/07/08 09:20:51;;;;;;;;;2.00;2.00;;;;;57.75;13.53;101881.31;5013577;28;45511;-78
2021/07/08 09:23:18;;;;;;;;;0.00;0.00;;;;;53.47;14.40;101878.97;5013290;28;45264;-79
2021/07/08 09:25:46;;;;;;;;;1.00;1.00;;;;;50.75;16.70;101877.59;5013736;28;45570;-78
2021/07/08 09:28:23;;;;;;;;;1.75;1.75;;;;;50.80;16.96;101872.75;5014838;28;45573;-79
2021/07/08 09:31:00;;;;;;;;;1.25;1.25;;;;;48.94;17.49;101876.16;5016886;28;45537;-79
2021/07/08 09:33:40;;;;;;;;;1.50;1.50;;;;;49.25;17.18;101871.88;5016381;28;45432;-78
2021/07/08 09:36:07;;;;;;;;;1.75;1.75;;;;;49.20;17.02;101865.53;5017215;28;45708;-79
2021/07/08 09:38:32;;;;;;;;;1.50;1.50;;;;;48.31;17.32;101868.66;5015564;28;45542;-79
2021/07/08 09:41:10;;;;;;;;;2.25;2.00;;;;;45.31;18.48;101857.00;5012773;28;45316;-77
2021/07/08 09:43:38;;;;;;;;;3.25;2.00;;;;;42.26;19.68;101862.78;5014628;28;45367;-77
2021/07/08 09:46:04;;;;;;;;;2.25;2.00;;;;;40.39;21.87;101862.03;5016826;28;45629;-78
2021/07/08 09:48:29;;;;;;;;;1.25;1.25;;;;;39.15;22.48;101861.53;5016343;28;45396;-78
2021/07/08 09:50:56;;;;;;;;;3.00;3.00;;;;;39.05;23.93;101856.59;5016220;28;45378;-79
2021/07/08 09:53:25;;;;;;;;;0.00;0.00;;;;;39.90;23.57;101856.63;5015959;28;46222;-78
2021/07/08 09:58:32;;;;;;;;;2.75;2.00;;;;;41.43;22.78;101859.53;5015088;28;45572;-78
2021/07/08 10:01:10;;;;;;;;;3.00;2.50;;;;;41.85;22.64;101857.34;5016407;28;45432;-79
2021/07/08 10:03:36;;;;;;;;;1.50;1.50;;;;;41.38;22.21;101860.25;5011602;28;46156;-81
2021/07/08 10:06:02;;;;;;;;;1.25;1.25;;;;;40.32;23.21;101858.56;5016032;28;45534;-79
2021/07/08 10:08:29;;;;;;;;;4.00;2.00;;;;;39.31;24.01;101858.22;5014103;28;45614;-79
2021/07/08 10:10:54;;;;;;;;;1.75;1.75;;;;;38.36;24.57;101852.97;5011604;28;45683;-78
2021/07/08 10:13:19;;;;;;;;;1.75;1.00;;;;;37.48;25.68;101861.03;5006776;28;45527;-78
2021/07/08 10:15:47;;;;;;;;;3.00;3.00;;;;;36.96;25.68;101853.75;5028349;28;45457;-78
2021/07/08 10:18:13;;;;;;;;;1.25;0.25;;;;;36.12;26.37;101851.59;5034200;28;45404;-77
2021/07/08 10:20:41;;;;;;;;;2.75;2.00;;;;;35.71;26.97;101849.78;5016116;28;45791;-77
2021/07/08 10:23:10;;;;;;;;;2.00;2.00;;;;;35.89;27.38;101849.22;5010446;28;46983;-77
2021/07/08 10:25:35;;;;;;;;;3.00;2.00;;;;;36.06;26.86;101850.53;5004558;28;45446;-77
2021/07/08 10:28:01;;;;;;;;;3.75;3.75;;;;;36.20;26.57;101846.78;5007128;28;45581;-77
2021/07/08 10:30:28;;;;;;;;;2.25;2.00;;;;;36.23;26.91;101850.97;5009277;28;45771;-76
2021/07/08 10:32:55;;;;;;;;;0.50;0.50;;;;;36.39;27.68;101845.13;5014622;28;49866;-78
2021/07/08 10:35:44;;;;;;;;;1.50;1.50;;;;;36.54;26.98;101851.28;5015881;28;45514;-78
2021/07/08 10:38:31;;;;;;;;;1.75;1.75;;;;;36.44;27.36;101848.13;5012447;28;45590;-81
2021/07/08 10:41:19;;;;;;;;;3.25;2.00;;;;;36.48;27.40;101851.25;5028147;28;45586;-80
2021/07/08 10:43:45;;;;;;;;;2.00;2.00;;;;;35.83;26.52;101850.88;5033244;28;46768;-77
2021/07/08 10:46:16;;;;;;;;;1.00;1.00;;;;;34.82;27.65;101855.13;5017680;28;45420;-79
2021/07/08 10:48:51;;;;;;;;;1.50;1.50;;;;;34.61;29.35;101845.94;5011512;28;45416;-79
2021/07/08 10:51:26;;;;;;;;;2.25;2.25;;;;;34.13;28.52;101844.84;5029406;28;45692;-78
2021/07/08 10:53:52;;;;;;;;;2.25;2.25;;;;;33.64;28.24;101853.72;5013712;28;45496;-75
2021/07/08 10:56:22;;;;;;;;;5.00;4.00;;;;;33.33;28.53;101853.91;5012371;28;45476;-79
2021/07/08 10:58:54;;;;;;;;;2.50;2.50;;;;;33.12;29.59;101843.75;5012915;28;45547;-79
2021/07/08 11:01:29;;;;;;;;;1.00;1.00;;;;;33.01;29.90;101846.94;5010243;28;45451;-77
2021/07/08 11:04:00;;;;;;;;;3.00;3.00;;;;;32.89;29.38;101839.25;5012920;28;45618;-76
2021/07/08 11:06:31;;;;;;;;;2.75;2.75;;;;;32.71;30.79;101841.41;5014760;28;45706;-78
2021/07/08 11:09:21;;;;;;;;;3.25;3.25;;;;;32.54;30.86;101850.78;5014713;28;45486;-78
2021/07/08 11:11:46;;;;;;;;;2.75;2.50;;;;;32.25;31.39;101849.59;5005493;28;45636;-78
2021/07/08 11:14:16;;;;;;;;;2.50;2.50;;;;;31.87;31.38;101856.81;5013251;28;45507;-78
2021/07/08 11:16:46;;;;;;;;;2.50;2.50;;;;;31.34;32.76;101852.97;5013610;28;45674;-78
2021/07/08 11:19:31;;;;;;;;;2.75;2.25;;;;;30.80;32.70;101850.00;5012767;28;46023;-77
2021/07/08 11:22:04;;;;;;;;;6.50;3.00;;;;;30.32;33.29;101854.38;5013929;28;45615;-78
2021/07/08 11:24:51;;;;;;;;;2.50;2.50;;;;;29.91;33.24;101851.56;5012329;28;45514;-77
2021/07/08 11:27:22;;;;;;;;;3.25;3.25;;;;;29.57;34.28;101854.34;5013864;28;45710;-76
2021/07/08 11:29:51;;;;;;;;;3.25;2.25;;;;;29.22;35.07;101860.75;5014774;28;45793;-77